sensor_id;sensor_type;location;lat;lon;timestamp;pressure;altitude;pressure_sealevel;temperature;humidity
7760;BME280;3924;48.830;9.262;2024-01-11T00:01:23;99601.88;;;-3.57;76.24
7760;BME280;3924;48.830;9.262;2024-01-11T00:03:49;99596.13;;;-3.61;76.46
7760;BME280;3924;48.830;9.262;2024-01-11T00:06:16;99609.38;;;-3.61;76.35
7760;BME280;3924;48.830;9.262;2024-01-11T00:08:43;99601.03;;;-3.58;76.43
7760;BME280;3924;48.830;9.262;2024-01-11T00:11:10;99609.19;;;-3.59;76.53
7760;BME280;3924;48.830;9.262;2024-01-11T00:13:37;99596.13;;;-3.61;76.65
7760;BME280;3924;48.830;9.262;2024-01-11T00:16:04;99613.47;;;-3.58;76.63
7760;BME280;3924;48.830;9.262;2024-01-11T00:18:30;99612.66;;;-3.59;76.60
7760;BME280;3924;48.830;9.262;2024-01-11T00:20:57;99613.66;;;-3.60;76.73
7760;BME280;3924;48.830;9.262;2024-01-11T00:23:24;99610.38;;;-3.62;76.68
7760;BME280;3924;48.830;9.262;2024-01-11T00:25:51;99616.50;;;-3.61;76.61
7760;BME280;3924;48.830;9.262;2024-01-11T00:28:18;99608.72;;;-3.63;76.82
7760;BME280;3924;48.830;9.262;2024-01-11T00:30:44;99615.03;;;-3.64;76.78
7760;BME280;3924;48.830;9.262;2024-01-11T00:33:11;99606.72;;;-3.61;76.59
7760;BME280;3924;48.830;9.262;2024-01-11T00:35:38;99612.00;;;-3.61;76.63
7760;BME280;3924;48.830;9.262;2024-01-11T00:38:05;99613.00;;;-3.62;76.85
7760;BME280;3924;48.830;9.262;2024-01-11T00:40:32;99607.91;;;-3.63;76.93
7760;BME280;3924;48.830;9.262;2024-01-11T00:42:58;99625.44;;;-3.62;76.99
7760;BME280;3924;48.830;9.262;2024-01-11T00:45:25;99610.25;;;-3.68;76.60
7760;BME280;3924;48.830;9.262;2024-01-11T00:47:52;99618.38;;;-3.70;76.65
7760;BME280;3924;48.830;9.262;2024-01-11T00:50:19;99620.06;;;-3.77;77.09
7760;BME280;3924;48.830;9.262;2024-01-11T00:52:46;99614.78;;;-3.77;77.09
7760;BME280;3924;48.830;9.262;2024-01-11T00:55:13;99623.34;;;-3.75;77.21
7760;BME280;3924;48.830;9.262;2024-01-11T00:57:39;99627.47;;;-3.72;77.20
7760;BME280;3924;48.830;9.262;2024-01-11T01:00:10;99626.31;;;-3.70;77.25
7760;BME280;3924;48.830;9.262;2024-01-11T01:02:40;99623.00;;;-3.72;77.02
7760;BME280;3924;48.830;9.262;2024-01-11T01:05:08;99621.34;;;-3.73;77.26
7760;BME280;3924;48.830;9.262;2024-01-11T01:07:36;99620.72;;;-3.75;77.09
7760;BME280;3924;48.830;9.262;2024-01-11T01:10:03;99624.69;;;-3.79;77.15
7760;BME280;3924;48.830;9.262;2024-01-11T01:12:30;99618.94;;;-3.82;77.30
7760;BME280;3924;48.830;9.262;2024-01-11T01:14:56;99618.09;;;-3.83;77.73
7760;BME280;3924;48.830;9.262;2024-01-11T01:17:23;99620.09;;;-3.85;77.31
7760;BME280;3924;48.830;9.262;2024-01-11T01:19:50;99616.47;;;-3.84;77.42
7760;BME280;3924;48.830;9.262;2024-01-11T01:22:16;99615.59;;;-3.85;77.54
7760;BME280;3924;48.830;9.262;2024-01-11T01:24:43;99621.09;;;-3.86;77.44
7760;BME280;3924;48.830;9.262;2024-01-11T01:27:10;99627.56;;;-3.89;77.56
7760;BME280;3924;48.830;9.262;2024-01-11T01:29:36;99617.16;;;-3.90;77.41
7760;BME280;3924;48.830;9.262;2024-01-11T01:32:04;99632.22;;;-3.91;77.55
7760;BME280;3924;48.830;9.262;2024-01-11T01:34:32;99624.78;;;-3.95;77.45
7760;BME280;3924;48.830;9.262;2024-01-11T01:36:59;99633.53;;;-3.95;77.66
7760;BME280;3924;48.830;9.262;2024-01-11T01:39:25;99641.84;;;-3.98;77.48
7760;BME280;3924;48.830;9.262;2024-01-11T01:41:52;99646.00;;;-4.03;77.77
7760;BME280;3924;48.830;9.262;2024-01-11T01:44:19;99650.63;;;-4.05;77.59
7760;BME280;3924;48.830;9.262;2024-01-11T01:46:46;99656.41;;;-4.02;77.62
7760;BME280;3924;48.830;9.262;2024-01-11T01:49:14;99660.88;;;-4.02;77.78
7760;BME280;3924;48.830;9.262;2024-01-11T01:51:41;99663.72;;;-4.04;77.72
7760;BME280;3924;48.830;9.262;2024-01-11T01:54:07;99660.38;;;-4.06;77.89
7760;BME280;3924;48.830;9.262;2024-01-11T01:56:35;99671.47;;;-4.02;77.97
7760;BME280;3924;48.830;9.262;2024-01-11T01:59:04;99664.19;;;-4.00;78.16
7760;BME280;3924;48.830;9.262;2024-01-11T02:01:31;99651.59;;;-3.98;77.78
7760;BME280;3924;48.830;9.262;2024-01-11T02:03:59;99661.34;;;-3.99;77.88
7760;BME280;3924;48.830;9.262;2024-01-11T02:06:26;99655.41;;;-4.01;77.98
7760;BME280;3924;48.830;9.262;2024-01-11T02:08:56;99659.56;;;-4.06;77.88
7760;BME280;3924;48.830;9.262;2024-01-11T02:11:24;99660.38;;;-4.06;78.12
7760;BME280;3924;48.830;9.262;2024-01-11T02:13:51;99650.97;;;-4.08;78.20
7760;BME280;3924;48.830;9.262;2024-01-11T02:16:18;99652.97;;;-4.10;78.18
7760;BME280;3924;48.830;9.262;2024-01-11T02:18:44;99658.41;;;-4.12;78.12
7760;BME280;3924;48.830;9.262;2024-01-11T02:21:14;99657.78;;;-4.14;78.21
7760;BME280;3924;48.830;9.262;2024-01-11T02:24:05;99663.06;;;-4.14;78.31
7760;BME280;3924;48.830;9.262;2024-01-11T02:26:32;99663.88;;;-4.14;78.34
7760;BME280;3924;48.830;9.262;2024-01-11T02:28:59;99663.56;;;-4.10;78.33
7760;BME280;3924;48.830;9.262;2024-01-11T02:31:26;99659.28;;;-4.11;78.32
7760;BME280;3924;48.830;9.262;2024-01-11T02:33:54;99668.88;;;-4.10;78.11
7760;BME280;3924;48.830;9.262;2024-01-11T02:36:22;99662.25;;;-4.15;78.31
7760;BME280;3924;48.830;9.262;2024-01-11T02:38:49;99669.53;;;-4.17;78.05
7760;BME280;3924;48.830;9.262;2024-01-11T02:41:18;99669.41;;;-4.23;78.09
7760;BME280;3924;48.830;9.262;2024-01-11T02:43:47;99668.22;;;-4.21;78.56
7760;BME280;3924;48.830;9.262;2024-01-11T02:46:15;99668.56;;;-4.24;78.49
7760;BME280;3924;48.830;9.262;2024-01-11T02:48:42;99663.28;;;-4.24;78.56
7760;BME280;3924;48.830;9.262;2024-01-11T02:51:10;99665.09;;;-4.24;78.62
7760;BME280;3924;48.830;9.262;2024-01-11T02:53:36;99658.31;;;-4.27;78.60
7760;BME280;3924;48.830;9.262;2024-01-11T02:56:03;99665.59;;;-4.29;78.60
7760;BME280;3924;48.830;9.262;2024-01-11T02:58:30;99652.53;;;-4.30;78.32
7760;BME280;3924;48.830;9.262;2024-01-11T03:00:57;99650.38;;;-4.27;78.80
7760;BME280;3924;48.830;9.262;2024-01-11T03:03:23;99657.97;;;-4.24;78.54
7760;BME280;3924;48.830;9.262;2024-01-11T03:05:50;99656.34;;;-4.25;78.53
7760;BME280;3924;48.830;9.262;2024-01-11T03:08:17;99647.72;;;-4.27;78.68
7760;BME280;3924;48.830;9.262;2024-01-11T03:10:44;99648.53;;;-4.26;78.81
7760;BME280;3924;48.830;9.262;2024-01-11T03:13:10;99639.97;;;-4.28;78.56
7760;BME280;3924;48.830;9.262;2024-01-11T03:15:37;99651.72;;;-4.31;78.47
7760;BME280;3924;48.830;9.262;2024-01-11T03:18:04;99646.28;;;-4.37;78.77
7760;BME280;3924;48.830;9.262;2024-01-11T03:20:31;99644.47;;;-4.37;78.72
7760;BME280;3924;48.830;9.262;2024-01-11T03:22:58;99638.84;;;-4.42;78.64
7760;BME280;3924;48.830;9.262;2024-01-11T03:25:25;99638.84;;;-4.42;78.87
7760;BME280;3924;48.830;9.262;2024-01-11T03:27:51;99644.31;;;-4.44;78.73
7760;BME280;3924;48.830;9.262;2024-01-11T03:30:18;99646.44;;;-4.47;78.89
7760;BME280;3924;48.830;9.262;2024-01-11T03:32:45;99652.25;;;-4.52;78.92
7760;BME280;3924;48.830;9.262;2024-01-11T03:35:12;99634.25;;;-4.56;78.77
7760;BME280;3924;48.830;9.262;2024-01-11T03:37:38;99634.91;;;-4.62;79.01
7760;BME280;3924;48.830;9.262;2024-01-11T03:40:06;99626.97;;;-4.62;79.22
7760;BME280;3924;48.830;9.262;2024-01-11T03:42:32;99637.56;;;-4.62;79.17
7760;BME280;3924;48.830;9.262;2024-01-11T03:45:00;99635.91;;;-4.63;79.09
7760;BME280;3924;48.830;9.262;2024-01-11T03:47:26;99646.50;;;-4.63;79.04
7760;BME280;3924;48.830;9.262;2024-01-11T03:49:53;99633.94;;;-4.70;79.08
7760;BME280;3924;48.830;9.262;2024-01-11T03:52:20;99633.91;;;-4.61;79.30
7760;BME280;3924;48.830;9.262;2024-01-11T03:54:47;99631.94;;;-4.59;79.24
7760;BME280;3924;48.830;9.262;2024-01-11T03:57:14;99636.88;;;-4.56;79.02
7760;BME280;3924;48.830;9.262;2024-01-11T03:59:41;99640.19;;;-4.54;79.37
7760;BME280;3924;48.830;9.262;2024-01-11T04:02:07;99634.56;;;-4.51;79.17
7760;BME280;3924;48.830;9.262;2024-01-11T04:04:34;99628.13;;;-4.57;79.04
7760;BME280;3924;48.830;9.262;2024-01-11T04:07:01;99619.84;;;-4.54;79.30
7760;BME280;3924;48.830;9.262;2024-01-11T04:09:28;99626.47;;;-4.50;79.36
7760;BME280;3924;48.830;9.262;2024-01-11T04:11:54;99616.88;;;-4.51;79.34
7760;BME280;3924;48.830;9.262;2024-01-11T04:14:22;99611.75;;;-4.52;79.14
7760;BME280;3924;48.830;9.262;2024-01-11T04:16:49;99622.66;;;-4.55;79.20
7760;BME280;3924;48.830;9.262;2024-01-11T04:19:15;99634.41;;;-4.58;79.37
7760;BME280;3924;48.830;9.262;2024-01-11T04:21:44;99645.31;;;-4.61;79.47
7760;BME280;3924;48.830;9.262;2024-01-11T04:24:11;99634.25;;;-4.64;79.41
7760;BME280;3924;48.830;9.262;2024-01-11T04:26:38;99634.25;;;-4.56;79.64
7760;BME280;3924;48.830;9.262;2024-01-11T04:29:05;99636.88;;;-4.56;79.30
7760;BME280;3924;48.830;9.262;2024-01-11T04:31:31;99629.31;;;-4.59;79.60
7760;BME280;3924;48.830;9.262;2024-01-11T04:33:58;99628.63;;;-4.61;79.40
7760;BME280;3924;48.830;9.262;2024-01-11T04:36:25;99629.94;;;-4.57;79.60
7760;BME280;3924;48.830;9.262;2024-01-11T04:38:51;99633.91;;;-4.61;79.26
7760;BME280;3924;48.830;9.262;2024-01-11T04:41:18;99632.91;;;-4.60;79.36
7760;BME280;3924;48.830;9.262;2024-01-11T04:43:45;99630.63;;;-4.63;79.55
7760;BME280;3924;48.830;9.262;2024-01-11T04:46:19;99628.97;;;-4.64;79.67
7760;BME280;3924;48.830;9.262;2024-01-11T04:49:03;99624.34;;;-4.62;79.57
7760;BME280;3924;48.830;9.262;2024-01-11T04:51:30;99631.44;;;-4.63;79.55
7760;BME280;3924;48.830;9.262;2024-01-11T04:53:56;99622.69;;;-4.63;79.35
7760;BME280;3924;48.830;9.262;2024-01-11T04:56:23;99625.69;;;-4.66;79.62
7760;BME280;3924;48.830;9.262;2024-01-11T04:58:50;99621.34;;;-4.68;79.65
7760;BME280;3924;48.830;9.262;2024-01-11T05:01:17;99631.28;;;-4.70;79.48
7760;BME280;3924;48.830;9.262;2024-01-11T05:03:45;99627.31;;;-4.74;79.64
7760;BME280;3924;48.830;9.262;2024-01-11T05:06:20;99631.63;;;-4.73;79.84
7760;BME280;3924;48.830;9.262;2024-01-11T05:08:50;99628.31;;;-4.75;79.72
7760;BME280;3924;48.830;9.262;2024-01-11T05:11:21;99625.38;;;-4.80;79.83
7760;BME280;3924;48.830;9.262;2024-01-11T05:13:48;99627.34;;;-4.82;79.88
7760;BME280;3924;48.830;9.262;2024-01-11T05:16:26;99640.41;;;-4.80;79.81
7760;BME280;3924;48.830;9.262;2024-01-11T05:18:55;99642.38;;;-4.82;79.99
7760;BME280;3924;48.830;9.262;2024-01-11T05:21:23;99641.56;;;-4.83;79.96
7760;BME280;3924;48.830;9.262;2024-01-11T05:23:50;99648.16;;;-4.79;79.86
7760;BME280;3924;48.830;9.262;2024-01-11T05:26:18;99656.41;;;-4.82;79.88
7760;BME280;3924;48.830;9.262;2024-01-11T05:28:45;99651.47;;;-4.85;79.70
7760;BME280;3924;48.830;9.262;2024-01-11T05:31:13;99659.06;;;-4.90;79.76
7760;BME280;3924;48.830;9.262;2024-01-11T05:33:44;99657.59;;;-4.92;79.96
7760;BME280;3924;48.830;9.262;2024-01-11T05:36:12;99655.94;;;-4.93;80.24
7760;BME280;3924;48.830;9.262;2024-01-11T05:38:39;99662.06;;;-4.93;79.88
7760;BME280;3924;48.830;9.262;2024-01-11T05:41:06;99666.53;;;-4.93;80.00
7760;BME280;3924;48.830;9.262;2024-01-11T05:43:34;99665.00;;;-4.88;80.16
7760;BME280;3924;48.830;9.262;2024-01-11T05:46:01;99658.75;;;-4.87;80.04
7760;BME280;3924;48.830;9.262;2024-01-11T05:48:28;99662.38;;;-4.88;80.17
7760;BME280;3924;48.830;9.262;2024-01-11T05:50:55;99661.22;;;-4.85;80.16
7760;BME280;3924;48.830;9.262;2024-01-11T05:53:21;99672.63;;;-4.85;80.11
7760;BME280;3924;48.830;9.262;2024-01-11T05:55:49;99685.84;;;-4.85;80.05
7760;BME280;3924;48.830;9.262;2024-01-11T05:58:19;99687.97;;;-4.88;80.02
7760;BME280;3924;48.830;9.262;2024-01-11T06:00:46;99692.63;;;-4.90;80.15
7760;BME280;3924;48.830;9.262;2024-01-11T06:03:13;99689.16;;;-4.91;80.24
7760;BME280;3924;48.830;9.262;2024-01-11T06:05:40;99691.13;;;-4.93;80.22
7760;BME280;3924;48.830;9.262;2024-01-11T06:08:07;99691.13;;;-4.93;80.27
7760;BME280;3924;48.830;9.262;2024-01-11T06:10:34;99686.00;;;-4.95;80.29
7760;BME280;3924;48.830;9.262;2024-01-11T06:13:00;99685.69;;;-5.00;80.23
7760;BME280;3924;48.830;9.262;2024-01-11T06:15:27;99683.34;;;-5.03;80.29
7760;BME280;3924;48.830;9.262;2024-01-11T06:17:54;99687.50;;;-5.00;80.33
7760;BME280;3924;48.830;9.262;2024-01-11T06:20:21;99687.97;;;-4.97;80.39
7760;BME280;3924;48.830;9.262;2024-01-11T06:22:47;99679.88;;;-4.95;80.42
7760;BME280;3924;48.830;9.262;2024-01-11T06:25:14;99677.25;;;-4.95;80.17
7760;BME280;3924;48.830;9.262;2024-01-11T06:27:42;99683.53;;;-4.96;80.37
7760;BME280;3924;48.830;9.262;2024-01-11T06:30:10;99679.88;;;-4.95;80.19
7760;BME280;3924;48.830;9.262;2024-01-11T06:32:37;99678.56;;;-4.99;80.17
7760;BME280;3924;48.830;9.262;2024-01-11T06:35:04;99688.81;;;-4.96;80.40
7760;BME280;3924;48.830;9.262;2024-01-11T06:37:31;99686.34;;;-4.98;80.37
7760;BME280;3924;48.830;9.262;2024-01-11T06:39:58;99693.44;;;-4.98;80.36
7760;BME280;3924;48.830;9.262;2024-01-11T06:42:25;99690.16;;;-5.00;80.44
7760;BME280;3924;48.830;9.262;2024-01-11T06:44:52;99683.88;;;-4.99;80.46
7760;BME280;3924;48.830;9.262;2024-01-11T06:47:19;99681.53;;;-5.02;80.41
7760;BME280;3924;48.830;9.262;2024-01-11T06:49:45;99686.81;;;-5.02;80.44
7760;BME280;3924;48.830;9.262;2024-01-11T06:52:12;99702.84;;;-5.04;80.29
7760;BME280;3924;48.830;9.262;2024-01-11T06:54:39;99699.38;;;-5.04;80.47
7760;BME280;3924;48.830;9.262;2024-01-11T06:57:06;99696.09;;;-5.06;80.53
7760;BME280;3924;48.830;9.262;2024-01-11T06:59:32;99708.97;;;-5.03;80.60
7760;BME280;3924;48.830;9.262;2024-01-11T07:01:59;99712.59;;;-5.04;80.75
7760;BME280;3924;48.830;9.262;2024-01-11T07:04:26;99721.69;;;-5.07;80.51
7760;BME280;3924;48.830;9.262;2024-01-11T07:06:52;99719.69;;;-5.13;80.49
7760;BME280;3924;48.830;9.262;2024-01-11T07:09:19;99721.00;;;-5.09;80.74
7760;BME280;3924;48.830;9.262;2024-01-11T07:11:46;99721.53;;;-5.05;80.77
7760;BME280;3924;48.830;9.262;2024-01-11T07:14:13;99719.88;;;-4.98;80.71
7760;BME280;3924;48.830;9.262;2024-01-11T07:16:40;99715.25;;;-4.96;80.65
7760;BME280;3924;48.830;9.262;2024-01-11T07:19:06;99720.53;;;-4.96;80.72
7760;BME280;3924;48.830;9.262;2024-01-11T07:21:33;99727.47;;;-4.95;80.54
7760;BME280;3924;48.830;9.262;2024-01-11T07:24:00;99715.59;;;-4.99;80.65
7760;BME280;3924;48.830;9.262;2024-01-11T07:26:27;99718.06;;;-4.98;80.70
7760;BME280;3924;48.830;9.262;2024-01-11T07:28:54;99733.94;;;-4.98;80.84
7760;BME280;3924;48.830;9.262;2024-01-11T07:31:23;99740.38;;;-5.00;80.70
7760;BME280;3924;48.830;9.262;2024-01-11T07:33:50;99750.13;;;-5.01;80.90
7760;BME280;3924;48.830;9.262;2024-01-11T07:36:17;99742.69;;;-4.97;80.89
7760;BME280;3924;48.830;9.262;2024-01-11T07:38:44;99734.91;;;-4.99;80.64
7760;BME280;3924;48.830;9.262;2024-01-11T07:41:11;99740.84;;;-4.97;80.92
7760;BME280;3924;48.830;9.262;2024-01-11T07:43:38;99751.59;;;-4.90;80.74
7760;BME280;3924;48.830;9.262;2024-01-11T07:46:19;99747.16;;;-4.89;80.82
7760;BME280;3924;48.830;9.262;2024-01-11T07:48:58;99754.09;;;-4.88;80.81
7760;BME280;3924;48.830;9.262;2024-01-11T07:51:26;99755.44;;;-4.84;80.86
7760;BME280;3924;48.830;9.262;2024-01-11T07:53:53;99762.19;;;-4.82;80.81
7760;BME280;3924;48.830;9.262;2024-01-11T07:56:20;99775.09;;;-4.87;80.67
7760;BME280;3924;48.830;9.262;2024-01-11T07:58:47;99777.41;;;-4.84;80.66
7760;BME280;3924;48.830;9.262;2024-01-11T08:01:15;99795.25;;;-4.86;80.48
7760;BME280;3924;48.830;9.262;2024-01-11T08:03:42;99789.31;;;-4.80;80.81
7760;BME280;3924;48.830;9.262;2024-01-11T08:06:11;99785.69;;;-4.71;80.79
7760;BME280;3924;48.830;9.262;2024-01-11T08:08:39;99781.56;;;-4.65;80.55
7760;BME280;3924;48.830;9.262;2024-01-11T08:11:10;99795.28;;;-4.61;80.62
7760;BME280;3924;48.830;9.262;2024-01-11T08:13:39;99792.31;;;-4.58;80.85
7760;BME280;3924;48.830;9.262;2024-01-11T08:16:06;99804.19;;;-4.54;80.70
7760;BME280;3924;48.830;9.262;2024-01-11T08:18:36;99801.56;;;-4.54;80.51
7760;BME280;3924;48.830;9.262;2024-01-11T08:21:03;99804.03;;;-4.61;80.33
7760;BME280;3924;48.830;9.262;2024-01-11T08:23:32;99810.50;;;-4.55;80.88
7760;BME280;3924;48.830;9.262;2024-01-11T08:26:00;99810.84;;;-4.50;80.54
7760;BME280;3924;48.830;9.262;2024-01-11T08:28:27;99808.00;;;-4.49;80.47
7760;BME280;3924;48.830;9.262;2024-01-11T08:30:54;99802.91;;;-4.42;80.59
7760;BME280;3924;48.830;9.262;2024-01-11T08:33:23;99808.53;;;-4.37;80.28
7760;BME280;3924;48.830;9.262;2024-01-11T08:35:50;99813.81;;;-4.45;80.31
7760;BME280;3924;48.830;9.262;2024-01-11T08:38:16;99807.84;;;-4.47;80.46
7760;BME280;3924;48.830;9.262;2024-01-11T08:40:43;99804.88;;;-4.44;80.55
7760;BME280;3924;48.830;9.262;2024-01-11T08:43:11;99809.53;;;-4.38;80.39
7760;BME280;3924;48.830;9.262;2024-01-11T08:45:38;99813.31;;;-4.32;80.73
7760;BME280;3924;48.830;9.262;2024-01-11T08:48:04;99801.75;;;-4.23;80.58
7760;BME280;3924;48.830;9.262;2024-01-11T08:50:31;99810.19;;;-4.11;80.39
7760;BME280;3924;48.830;9.262;2024-01-11T08:52:59;99805.88;;;-4.04;80.10
7760;BME280;3924;48.830;9.262;2024-01-11T08:55:26;99795.09;;;-4.03;80.13
7760;BME280;3924;48.830;9.262;2024-01-11T08:57:53;99809.78;;;-3.92;80.08
7760;BME280;3924;48.830;9.262;2024-01-11T09:00:20;99815.91;;;-3.92;79.82
7760;BME280;3924;48.830;9.262;2024-01-11T09:02:46;99799.06;;;-3.91;79.81
7760;BME280;3924;48.830;9.262;2024-01-11T09:05:16;99807.47;;;-3.87;80.14
7760;BME280;3924;48.830;9.262;2024-01-11T09:07:43;99818.72;;;-3.77;80.22
7760;BME280;3924;48.830;9.262;2024-01-11T09:10:10;99816.72;;;-3.75;79.80
7760;BME280;3924;48.830;9.262;2024-01-11T09:12:40;99816.41;;;-3.80;79.68
7760;BME280;3924;48.830;9.262;2024-01-11T09:15:09;99813.13;;;-3.90;79.66
7760;BME280;3924;48.830;9.262;2024-01-11T09:17:36;99818.91;;;-3.95;79.97
7760;BME280;3924;48.830;9.262;2024-01-11T09:20:05;99823.38;;;-3.95;79.73
7760;BME280;3924;48.830;9.262;2024-01-11T09:22:31;99830.50;;;-3.96;79.87
7760;BME280;3924;48.830;9.262;2024-01-11T09:24:59;99834.97;;;-3.96;79.69
7760;BME280;3924;48.830;9.262;2024-01-11T09:27:27;99837.13;;;-4.00;79.80
7760;BME280;3924;48.830;9.262;2024-01-11T09:29:55;99829.34;;;-3.93;80.07
7760;BME280;3924;48.830;9.262;2024-01-11T09:32:23;99833.66;;;-3.84;79.73
7760;BME280;3924;48.830;9.262;2024-01-11T09:34:50;99828.00;;;-3.81;79.87
7760;BME280;3924;48.830;9.262;2024-01-11T09:37:17;99822.03;;;-3.75;80.19
7760;BME280;3924;48.830;9.262;2024-01-11T09:39:45;99832.59;;;-3.67;79.95
7760;BME280;3924;48.830;9.262;2024-01-11T09:42:12;99836.59;;;-3.63;79.81
7760;BME280;3924;48.830;9.262;2024-01-11T09:44:40;99829.09;;;-3.59;79.66
7760;BME280;3924;48.830;9.262;2024-01-11T09:47:10;99828.78;;;-3.56;79.75
7760;BME280;3924;48.830;9.262;2024-01-11T09:49:43;99836.88;;;-3.49;79.74
7760;BME280;3924;48.830;9.262;2024-01-11T09:52:11;99833.03;;;-3.47;79.53
7760;BME280;3924;48.830;9.262;2024-01-11T09:54:39;99835.19;;;-3.42;79.53
7760;BME280;3924;48.830;9.262;2024-01-11T09:57:11;99830.03;;;-3.36;79.62
7760;BME280;3924;48.830;9.262;2024-01-11T09:59:39;99831.16;;;-3.22;79.65
7760;BME280;3924;48.830;9.262;2024-01-11T10:02:07;99827.22;;;-3.03;79.46
7760;BME280;3924;48.830;9.262;2024-01-11T10:04:36;99823.00;;;-2.81;79.18
7760;BME280;3924;48.830;9.262;2024-01-11T10:07:05;99817.88;;;-2.60;78.93
7760;BME280;3924;48.830;9.262;2024-01-11T10:09:36;99808.44;;;-2.39;78.70
7760;BME280;3924;48.830;9.262;2024-01-11T10:12:05;99793.38;;;-2.24;78.55
7760;BME280;3924;48.830;9.262;2024-01-11T10:14:35;99801.56;;;-2.11;78.43
7760;BME280;3924;48.830;9.262;2024-01-11T10:17:03;99804.78;;;-2.01;78.29
7760;BME280;3924;48.830;9.262;2024-01-11T10:19:31;99779.50;;;-1.97;78.12
7760;BME280;3924;48.830;9.262;2024-01-11T10:21:58;99770.25;;;-1.86;78.09
7760;BME280;3924;48.830;9.262;2024-01-11T10:24:29;99767.69;;;-1.79;78.10
7760;BME280;3924;48.830;9.262;2024-01-11T10:26:57;99774.31;;;-1.60;77.90
7760;BME280;3924;48.830;9.262;2024-01-11T10:29:33;99782.25;;;-1.46;77.66
7760;BME280;3924;48.830;9.262;2024-01-11T10:32:03;99768.78;;;-1.29;77.47
7760;BME280;3924;48.830;9.262;2024-01-11T10:34:30;99779.13;;;-1.20;77.39
7760;BME280;3924;48.830;9.262;2024-01-11T10:36:58;99775.25;;;-1.17;77.17
7760;BME280;3924;48.830;9.262;2024-01-11T10:39:26;99772.69;;;-1.11;77.10
7760;BME280;3924;48.830;9.262;2024-01-11T10:42:05;99793.69;;;-1.01;77.21
7760;BME280;3924;48.830;9.262;2024-01-11T10:44:35;99792.03;;;-1.02;76.90
7760;BME280;3924;48.830;9.262;2024-01-11T10:47:03;99781.75;;;-1.05;77.07
7760;BME280;3924;48.830;9.262;2024-01-11T10:49:39;99787.06;;;-1.05;76.88
7760;BME280;3924;48.830;9.262;2024-01-11T10:52:11;99796.41;;;-0.94;76.88
7760;BME280;3924;48.830;9.262;2024-01-11T10:54:39;99781.31;;;-0.72;76.79
7760;BME280;3924;48.830;9.262;2024-01-11T10:57:08;99779.41;;;-0.57;76.44
7760;BME280;3924;48.830;9.262;2024-01-11T10:59:39;99797.53;;;-0.46;76.28
7760;BME280;3924;48.830;9.262;2024-01-11T11:02:09;99797.16;;;-0.43;76.33
7760;BME280;3924;48.830;9.262;2024-01-11T11:04:40;99784.03;;;-0.44;76.08
7760;BME280;3924;48.830;9.262;2024-01-11T11:07:08;99792.66;;;-0.42;75.98
7760;BME280;3924;48.830;9.262;2024-01-11T11:09:38;99792.69;;;-0.36;76.04
7760;BME280;3924;48.830;9.262;2024-01-11T11:12:07;99783.06;;;-0.37;75.72
7760;BME280;3924;48.830;9.262;2024-01-11T11:14:36;99784.22;;;-0.24;75.73
7760;BME280;3924;48.830;9.262;2024-01-11T11:17:03;99786.72;;;-0.16;75.59
7760;BME280;3924;48.830;9.262;2024-01-11T11:19:31;99773.25;;;-0.08;75.30
7760;BME280;3924;48.830;9.262;2024-01-11T11:21:58;99776.28;;;0.10;75.03
7760;BME280;3924;48.830;9.262;2024-01-11T11:24:25;99773.44;;;0.18;74.94
7760;BME280;3924;48.830;9.262;2024-01-11T11:26:52;99766.53;;;0.24;75.10
7760;BME280;3924;48.830;9.262;2024-01-11T11:29:19;99771.97;;;0.44;74.78
7760;BME280;3924;48.830;9.262;2024-01-11T11:31:46;99774.25;;;0.47;74.50
7760;BME280;3924;48.830;9.262;2024-01-11T11:34:40;99783.47;;;0.44;74.68
7760;BME280;3924;48.830;9.262;2024-01-11T11:37:08;99775.25;;;0.46;74.48
7760;BME280;3924;48.830;9.262;2024-01-11T11:39:36;99772.84;;;0.51;74.27
7760;BME280;3924;48.830;9.262;2024-01-11T11:42:04;99758.75;;;0.64;74.35
7760;BME280;3924;48.830;9.262;2024-01-11T11:44:32;99765.13;;;0.69;74.11
7760;BME280;3924;48.830;9.262;2024-01-11T11:47:21;99761.09;;;0.87;74.21
7760;BME280;3924;48.830;9.262;2024-01-11T11:50:11;99756.25;;;1.10;73.78
7760;BME280;3924;48.830;9.262;2024-01-11T11:52:39;99753.00;;;1.34;73.37
7760;BME280;3924;48.830;9.262;2024-01-11T11:55:07;99752.63;;;1.44;72.80
7760;BME280;3924;48.830;9.262;2024-01-11T11:57:35;99750.56;;;1.40;72.72
7760;BME280;3924;48.830;9.262;2024-01-11T12:00:02;99750.53;;;1.26;72.69
7760;BME280;3924;48.830;9.262;2024-01-11T12:02:33;99743.53;;;1.19;72.78
7760;BME280;3924;48.830;9.262;2024-01-11T12:05:02;99741.06;;;1.17;72.87
7760;BME280;3924;48.830;9.262;2024-01-11T12:07:31;99721.38;;;1.25;72.89
7760;BME280;3924;48.830;9.262;2024-01-11T12:09:58;99720.53;;;1.51;72.46
7760;BME280;3924;48.830;9.262;2024-01-11T12:12:24;99735.16;;;1.55;72.22
7760;BME280;3924;48.830;9.262;2024-01-11T12:14:53;99728.75;;;1.36;72.11
7760;BME280;3924;48.830;9.262;2024-01-11T12:17:19;99723.22;;;1.24;72.35
7760;BME280;3924;48.830;9.262;2024-01-11T12:19:46;99718.03;;;1.23;72.33
7760;BME280;3924;48.830;9.262;2024-01-11T12:22:13;99719.50;;;1.25;72.18
7760;BME280;3924;48.830;9.262;2024-01-11T12:24:40;99716.22;;;1.30;72.19
7760;BME280;3924;48.830;9.262;2024-01-11T12:27:08;99716.41;;;1.28;71.68
7760;BME280;3924;48.830;9.262;2024-01-11T12:29:38;99722.56;;;1.29;71.86
7760;BME280;3924;48.830;9.262;2024-01-11T12:32:20;99716.22;;;1.36;71.85
7760;BME280;3924;48.830;9.262;2024-01-11T12:34:48;99713.16;;;1.46;71.67
7760;BME280;3924;48.830;9.262;2024-01-11T12:37:15;99706.56;;;1.62;71.52
7760;BME280;3924;48.830;9.262;2024-01-11T12:39:42;99707.00;;;1.79;71.27
7760;BME280;3924;48.830;9.262;2024-01-11T12:42:09;99707.00;;;1.72;70.94
7760;BME280;3924;48.830;9.262;2024-01-11T12:44:36;99707.41;;;1.62;71.43
7760;BME280;3924;48.830;9.262;2024-01-11T12:47:04;99704.94;;;1.61;71.00
7760;BME280;3924;48.830;9.262;2024-01-11T12:49:32;99702.88;;;1.70;71.05
7760;BME280;3924;48.830;9.262;2024-01-11T12:51:58;99697.13;;;1.66;71.06
7760;BME280;3924;48.830;9.262;2024-01-11T12:54:25;99696.91;;;1.61;70.86
7760;BME280;3924;48.830;9.262;2024-01-11T12:56:54;99694.47;;;1.46;71.11
7760;BME280;3924;48.830;9.262;2024-01-11T12:59:25;99687.25;;;1.60;70.94
7760;BME280;3924;48.830;9.262;2024-01-11T13:01:51;99681.28;;;1.64;70.70
7760;BME280;3924;48.830;9.262;2024-01-11T13:04:19;99682.53;;;1.55;70.87
7760;BME280;3924;48.830;9.262;2024-01-11T13:06:46;99687.25;;;1.47;70.69
7760;BME280;3924;48.830;9.262;2024-01-11T13:09:13;99683.56;;;1.41;70.73
7760;BME280;3924;48.830;9.262;2024-01-11T13:11:41;99691.34;;;1.43;70.79
7760;BME280;3924;48.830;9.262;2024-01-11T13:14:08;99689.09;;;1.33;70.62
7760;BME280;3924;48.830;9.262;2024-01-11T13:16:41;99683.31;;;1.23;70.46
7760;BME280;3924;48.830;9.262;2024-01-11T13:19:07;99682.72;;;1.27;71.02
7760;BME280;3924;48.830;9.262;2024-01-11T13:21:51;99694.84;;;1.36;70.86
7760;BME280;3924;48.830;9.262;2024-01-11T13:24:18;99697.34;;;1.45;70.18
7760;BME280;3924;48.830;9.262;2024-01-11T13:26:45;99691.34;;;1.36;70.32
7760;BME280;3924;48.830;9.262;2024-01-11T13:29:12;99690.75;;;1.27;70.61